sensor_id;sensor_type;location;lat;lon;timestamp;P1;durP1;ratioP1;P2;durP2;ratioP2
28772;SDS011;15925;51.222;5.678;2023-06-22T00:02:13;2.88;;;1.00;;
28772;SDS011;15925;51.222;5.678;2023-06-22T00:04:39;1.17;;;0.90;;
28772;SDS011;15925;51.222;5.678;2023-06-22T00:07:05;1.10;;;1.00;;
28772;SDS011;15925;51.222;5.678;2023-06-22T00:09:32;4.85;;;1.13;;
28772;SDS011;15925;51.222;5.678;2023-06-22T00:14:24;1.27;;;0.80;;
28772;SDS011;15925;51.222;5.678;2023-06-22T00:16:50;9.83;;;1.60;;
28772;SDS011;15925;51.222;5.678;2023-06-22T00:19:24;2.92;;;1.95;;
28772;SDS011;15925;51.222;5.678;2023-06-22T00:21:50;8.57;;;1.57;;
28772;SDS011;15925;51.222;5.678;2023-06-22T00:24:18;4.78;;;2.17;;
28772;SDS011;15925;51.222;5.678;2023-06-22T00:26:45;3.67;;;1.90;;
28772;SDS011;15925;51.222;5.678;2023-06-22T00:29:12;4.90;;;2.28;;
28772;SDS011;15925;51.222;5.678;2023-06-22T00:31:37;6.03;;;2.53;;
28772;SDS011;15925;51.222;5.678;2023-06-22T00:34:03;1.97;;;1.40;;
28772;SDS011;15925;51.222;5.678;2023-06-22T00:36:32;4.70;;;2.10;;
28772;SDS011;15925;51.222;5.678;2023-06-22T00:38:58;4.53;;;2.43;;
28772;SDS011;15925;51.222;5.678;2023-06-22T00:41:24;3.53;;;1.97;;
28772;SDS011;15925;51.222;5.678;2023-06-22T00:43:53;7.00;;;2.38;;
28772;SDS011;15925;51.222;5.678;2023-06-22T00:46:20;6.70;;;1.60;;
28772;SDS011;15925;51.222;5.678;2023-06-22T00:48:47;2.55;;;1.15;;
28772;SDS011;15925;51.222;5.678;2023-06-22T00:51:14;5.45;;;1.60;;
28772;SDS011;15925;51.222;5.678;2023-06-22T00:53:40;6.80;;;1.80;;
28772;SDS011;15925;51.222;5.678;2023-06-22T00:56:09;7.63;;;2.60;;
28772;SDS011;15925;51.222;5.678;2023-06-22T00:58:38;15.30;;;3.85;;
28772;SDS011;15925;51.222;5.678;2023-06-22T01:01:06;21.90;;;4.35;;
28772;SDS011;15925;51.222;5.678;2023-06-22T01:03:33;10.02;;;3.95;;
28772;SDS011;15925;51.222;5.678;2023-06-22T01:06:01;11.52;;;5.00;;
28772;SDS011;15925;51.222;5.678;2023-06-22T01:08:49;12.90;;;4.63;;
28772;SDS011;15925;51.222;5.678;2023-06-22T01:11:31;8.43;;;4.07;;
28772;SDS011;15925;51.222;5.678;2023-06-22T01:14:06;13.30;;;4.20;;
28772;SDS011;15925;51.222;5.678;2023-06-22T01:16:40;7.35;;;3.50;;
28772;SDS011;15925;51.222;5.678;2023-06-22T01:19:20;9.32;;;4.28;;
28772;SDS011;15925;51.222;5.678;2023-06-22T01:21:59;9.15;;;4.03;;
28772;SDS011;15925;51.222;5.678;2023-06-22T01:24:27;8.07;;;4.60;;
28772;SDS011;15925;51.222;5.678;2023-06-22T01:29:55;9.13;;;4.35;;
28772;SDS011;15925;51.222;5.678;2023-06-22T01:32:34;8.32;;;4.70;;
28772;SDS011;15925;51.222;5.678;2023-06-22T01:37:30;12.18;;;5.18;;
28772;SDS011;15925;51.222;5.678;2023-06-22T01:39:57;15.23;;;5.75;;
28772;SDS011;15925;51.222;5.678;2023-06-22T01:42:24;8.88;;;5.45;;
28772;SDS011;15925;51.222;5.678;2023-06-22T01:44:51;15.13;;;5.63;;
28772;SDS011;15925;51.222;5.678;2023-06-22T01:47:19;14.13;;;5.63;;
28772;SDS011;15925;51.222;5.678;2023-06-22T01:49:46;17.77;;;5.95;;
28772;SDS011;15925;51.222;5.678;2023-06-22T01:52:11;13.37;;;5.93;;
28772;SDS011;15925;51.222;5.678;2023-06-22T01:54:38;11.53;;;5.60;;
28772;SDS011;15925;51.222;5.678;2023-06-22T01:57:05;9.75;;;5.35;;
28772;SDS011;15925;51.222;5.678;2023-06-22T01:59:36;27.33;;;5.60;;
28772;SDS011;15925;51.222;5.678;2023-06-22T02:02:23;16.38;;;4.85;;
28772;SDS011;15925;51.222;5.678;2023-06-22T02:05:08;11.20;;;5.97;;
28772;SDS011;15925;51.222;5.678;2023-06-22T02:07:39;12.38;;;4.95;;
28772;SDS011;15925;51.222;5.678;2023-06-22T02:10:11;12.82;;;5.95;;
28772;SDS011;15925;51.222;5.678;2023-06-22T02:12:41;13.43;;;6.38;;
28772;SDS011;15925;51.222;5.678;2023-06-22T02:15:09;11.40;;;4.97;;
28772;SDS011;15925;51.222;5.678;2023-06-22T02:17:37;10.98;;;5.40;;
28772;SDS011;15925;51.222;5.678;2023-06-22T02:20:03;10.85;;;5.35;;
28772;SDS011;15925;51.222;5.678;2023-06-22T02:22:34;14.15;;;5.82;;
28772;SDS011;15925;51.222;5.678;2023-06-22T02:27:27;12.63;;;4.47;;
28772;SDS011;15925;51.222;5.678;2023-06-22T02:29:53;11.57;;;6.50;;
28772;SDS011;15925;51.222;5.678;2023-06-22T02:32:19;14.05;;;6.18;;
28772;SDS011;15925;51.222;5.678;2023-06-22T02:34:45;13.00;;;5.28;;
28772;SDS011;15925;51.222;5.678;2023-06-22T02:37:15;15.10;;;6.78;;
28772;SDS011;15925;51.222;5.678;2023-06-22T02:39:41;11.20;;;5.03;;
28772;SDS011;15925;51.222;5.678;2023-06-22T02:42:07;12.15;;;6.05;;
28772;SDS011;15925;51.222;5.678;2023-06-22T02:44:33;12.25;;;5.40;;
28772;SDS011;15925;51.222;5.678;2023-06-22T02:46:58;27.95;;;7.05;;
28772;SDS011;15925;51.222;5.678;2023-06-22T02:49:24;16.52;;;5.45;;
28772;SDS011;15925;51.222;5.678;2023-06-22T02:51:50;12.10;;;6.68;;
28772;SDS011;15925;51.222;5.678;2023-06-22T02:54:19;9.07;;;5.13;;
28772;SDS011;15925;51.222;5.678;2023-06-22T02:56:48;19.00;;;7.15;;
28772;SDS011;15925;51.222;5.678;2023-06-22T02:59:14;18.33;;;6.03;;
28772;SDS011;15925;51.222;5.678;2023-06-22T03:01:39;15.35;;;7.03;;
28772;SDS011;15925;51.222;5.678;2023-06-22T03:04:13;13.50;;;7.00;;
28772;SDS011;15925;51.222;5.678;2023-06-22T03:06:39;9.05;;;5.28;;
28772;SDS011;15925;51.222;5.678;2023-06-22T03:09:07;16.13;;;6.13;;
28772;SDS011;15925;51.222;5.678;2023-06-22T03:11:34;10.88;;;5.72;;
28772;SDS011;15925;51.222;5.678;2023-06-22T03:14:00;20.35;;;5.80;;
28772;SDS011;15925;51.222;5.678;2023-06-22T03:16:27;13.23;;;7.30;;
28772;SDS011;15925;51.222;5.678;2023-06-22T03:18:55;13.27;;;5.88;;
28772;SDS011;15925;51.222;5.678;2023-06-22T03:21:25;11.40;;;6.40;;
28772;SDS011;15925;51.222;5.678;2023-06-22T03:23:54;12.70;;;6.13;;
28772;SDS011;15925;51.222;5.678;2023-06-22T03:28:48;15.35;;;6.28;;
28772;SDS011;15925;51.222;5.678;2023-06-22T03:31:14;17.60;;;6.60;;
28772;SDS011;15925;51.222;5.678;2023-06-22T03:33:40;12.43;;;6.55;;
28772;SDS011;15925;51.222;5.678;2023-06-22T03:36:05;18.60;;;6.50;;
28772;SDS011;15925;51.222;5.678;2023-06-22T03:38:32;15.70;;;6.00;;
28772;SDS011;15925;51.222;5.678;2023-06-22T03:40:58;11.63;;;5.97;;
28772;SDS011;15925;51.222;5.678;2023-06-22T03:45:50;12.20;;;5.63;;
28772;SDS011;15925;51.222;5.678;2023-06-22T03:48:16;14.20;;;7.60;;
28772;SDS011;15925;51.222;5.678;2023-06-22T03:50:42;21.90;;;7.72;;
28772;SDS011;15925;51.222;5.678;2023-06-22T03:53:09;14.32;;;6.22;;
28772;SDS011;15925;51.222;5.678;2023-06-22T03:58:01;16.73;;;5.53;;
28772;SDS011;15925;51.222;5.678;2023-06-22T04:00:31;18.25;;;7.03;;
28772;SDS011;15925;51.222;5.678;2023-06-22T04:02:57;14.95;;;6.95;;
28772;SDS011;15925;51.222;5.678;2023-06-22T04:05:23;11.40;;;6.47;;
28772;SDS011;15925;51.222;5.678;2023-06-22T04:07:49;20.27;;;6.38;;
28772;SDS011;15925;51.222;5.678;2023-06-22T04:10:15;18.33;;;6.63;;
28772;SDS011;15925;51.222;5.678;2023-06-22T04:12:41;17.23;;;7.17;;
28772;SDS011;15925;51.222;5.678;2023-06-22T04:15:07;12.13;;;6.25;;
28772;SDS011;15925;51.222;5.678;2023-06-22T04:17:33;15.07;;;6.95;;
28772;SDS011;15925;51.222;5.678;2023-06-22T04:19:58;15.00;;;6.70;;
28772;SDS011;15925;51.222;5.678;2023-06-22T04:22:24;17.05;;;7.13;;
28772;SDS011;15925;51.222;5.678;2023-06-22T04:24:50;18.40;;;7.70;;
28772;SDS011;15925;51.222;5.678;2023-06-22T04:27:16;13.88;;;7.30;;
28772;SDS011;15925;51.222;5.678;2023-06-22T04:29:43;17.98;;;6.65;;
28772;SDS011;15925;51.222;5.678;2023-06-22T04:32:14;12.43;;;6.13;;
28772;SDS011;15925;51.222;5.678;2023-06-22T04:34:40;13.38;;;6.70;;
28772;SDS011;15925;51.222;5.678;2023-06-22T04:37:07;9.88;;;6.40;;
28772;SDS011;15925;51.222;5.678;2023-06-22T04:39:32;11.50;;;6.73;;
28772;SDS011;15925;51.222;5.678;2023-06-22T04:41:58;16.23;;;6.30;;
28772;SDS011;15925;51.222;5.678;2023-06-22T04:44:27;22.33;;;8.20;;
28772;SDS011;15925;51.222;5.678;2023-06-22T04:46:54;19.95;;;7.43;;
28772;SDS011;15925;51.222;5.678;2023-06-22T04:49:29;19.75;;;7.43;;
28772;SDS011;15925;51.222;5.678;2023-06-22T04:52:00;17.73;;;7.65;;
28772;SDS011;15925;51.222;5.678;2023-06-22T04:54:25;13.27;;;6.60;;
28772;SDS011;15925;51.222;5.678;2023-06-22T04:56:52;20.47;;;7.03;;
28772;SDS011;15925;51.222;5.678;2023-06-22T04:59:28;18.95;;;8.20;;
28772;SDS011;15925;51.222;5.678;2023-06-22T05:01:59;20.42;;;7.47;;
28772;SDS011;15925;51.222;5.678;2023-06-22T05:04:26;17.02;;;7.30;;
28772;SDS011;15925;51.222;5.678;2023-06-22T05:06:53;23.55;;;8.23;;
28772;SDS011;15925;51.222;5.678;2023-06-22T05:09:20;15.63;;;7.93;;
28772;SDS011;15925;51.222;5.678;2023-06-22T05:14:12;15.80;;;7.30;;
28772;SDS011;15925;51.222;5.678;2023-06-22T05:16:38;27.17;;;7.78;;
28772;SDS011;15925;51.222;5.678;2023-06-22T05:19:04;16.27;;;8.00;;
28772;SDS011;15925;51.222;5.678;2023-06-22T05:21:30;15.48;;;7.55;;
28772;SDS011;15925;51.222;5.678;2023-06-22T05:23:56;17.00;;;7.82;;
28772;SDS011;15925;51.222;5.678;2023-06-22T05:26:25;14.45;;;6.65;;
28772;SDS011;15925;51.222;5.678;2023-06-22T05:28:52;15.93;;;8.13;;
28772;SDS011;15925;51.222;5.678;2023-06-22T05:31:18;16.08;;;8.68;;
28772;SDS011;15925;51.222;5.678;2023-06-22T05:33:47;15.38;;;7.43;;
28772;SDS011;15925;51.222;5.678;2023-06-22T05:36:14;19.17;;;8.63;;
28772;SDS011;15925;51.222;5.678;2023-06-22T05:38:40;15.63;;;7.22;;
28772;SDS011;15925;51.222;5.678;2023-06-22T05:41:07;16.05;;;7.45;;
28772;SDS011;15925;51.222;5.678;2023-06-22T05:43:33;13.07;;;6.80;;
28772;SDS011;15925;51.222;5.678;2023-06-22T05:45:59;14.23;;;7.30;;
28772;SDS011;15925;51.222;5.678;2023-06-22T05:48:26;15.98;;;6.78;;
28772;SDS011;15925;51.222;5.678;2023-06-22T05:50:52;18.02;;;7.05;;
28772;SDS011;15925;51.222;5.678;2023-06-22T05:53:18;23.20;;;8.38;;
28772;SDS011;15925;51.222;5.678;2023-06-22T05:55:44;16.58;;;7.93;;
28772;SDS011;15925;51.222;5.678;2023-06-22T05:58:10;16.02;;;7.60;;
28772;SDS011;15925;51.222;5.678;2023-06-22T06:00:36;15.10;;;7.18;;
28772;SDS011;15925;51.222;5.678;2023-06-22T06:03:02;14.35;;;6.15;;
28772;SDS011;15925;51.222;5.678;2023-06-22T06:05:31;18.20;;;7.35;;
28772;SDS011;15925;51.222;5.678;2023-06-22T06:07:59;15.88;;;7.80;;
28772;SDS011;15925;51.222;5.678;2023-06-22T06:10:25;12.30;;;6.60;;
28772;SDS011;15925;51.222;5.678;2023-06-22T06:12:51;14.77;;;6.53;;
28772;SDS011;15925;51.222;5.678;2023-06-22T06:23:01;20.35;;;7.78;;
28772;SDS011;15925;51.222;5.678;2023-06-22T06:25:28;19.67;;;8.40;;
28772;SDS011;15925;51.222;5.678;2023-06-22T06:27:54;15.30;;;6.93;;
28772;SDS011;15925;51.222;5.678;2023-06-22T06:30:20;18.40;;;8.03;;
28772;SDS011;15925;51.222;5.678;2023-06-22T06:32:47;19.77;;;8.55;;
28772;SDS011;15925;51.222;5.678;2023-06-22T06:35:13;12.73;;;7.05;;
28772;SDS011;15925;51.222;5.678;2023-06-22T06:37:41;17.77;;;8.65;;
28772;SDS011;15925;51.222;5.678;2023-06-22T06:40:08;16.65;;;7.68;;
28772;SDS011;15925;51.222;5.678;2023-06-22T06:42:44;15.55;;;7.82;;
28772;SDS011;15925;51.222;5.678;2023-06-22T06:45:17;19.55;;;8.70;;
28772;SDS011;15925;51.222;5.678;2023-06-22T06:47:45;19.52;;;8.52;;
28772;SDS011;15925;51.222;5.678;2023-06-22T06:52:40;17.40;;;8.98;;
28772;SDS011;15925;51.222;5.678;2023-06-22T06:55:07;23.08;;;9.00;;
28772;SDS011;15925;51.222;5.678;2023-06-22T06:57:36;17.30;;;8.25;;
28772;SDS011;15925;51.222;5.678;2023-06-22T07:02:34;18.10;;;8.27;;
28772;SDS011;15925;51.222;5.678;2023-06-22T07:05:01;20.75;;;9.57;;
28772;SDS011;15925;51.222;5.678;2023-06-22T07:07:29;22.13;;;10.18;;
28772;SDS011;15925;51.222;5.678;2023-06-22T07:09:57;19.00;;;9.32;;
28772;SDS011;15925;51.222;5.678;2023-06-22T07:12:22;33.55;;;10.95;;
28772;SDS011;15925;51.222;5.678;2023-06-22T07:14:48;19.07;;;10.37;;
28772;SDS011;15925;51.222;5.678;2023-06-22T07:17:15;24.85;;;10.77;;
28772;SDS011;15925;51.222;5.678;2023-06-22T07:19:41;21.77;;;10.35;;
28772;SDS011;15925;51.222;5.678;2023-06-22T07:22:07;23.50;;;9.77;;
28772;SDS011;15925;51.222;5.678;2023-06-22T07:24:33;21.98;;;9.27;;
28772;SDS011;15925;51.222;5.678;2023-06-22T07:26:59;20.92;;;9.63;;
28772;SDS011;15925;51.222;5.678;2023-06-22T07:29:27;21.75;;;10.57;;
28772;SDS011;15925;51.222;5.678;2023-06-22T07:31:53;22.73;;;11.33;;
28772;SDS011;15925;51.222;5.678;2023-06-22T07:34:21;20.48;;;9.32;;
28772;SDS011;15925;51.222;5.678;2023-06-22T07:36:47;23.92;;;9.65;;
28772;SDS011;15925;51.222;5.678;2023-06-22T07:39:13;20.10;;;9.90;;
28772;SDS011;15925;51.222;5.678;2023-06-22T07:41:39;23.63;;;9.95;;
28772;SDS011;15925;51.222;5.678;2023-06-22T07:44:08;18.92;;;9.52;;
28772;SDS011;15925;51.222;5.678;2023-06-22T07:46:34;24.60;;;11.10;;
28772;SDS011;15925;51.222;5.678;2023-06-22T07:49:00;21.52;;;10.38;;
28772;SDS011;15925;51.222;5.678;2023-06-22T07:51:27;19.45;;;10.30;;
28772;SDS011;15925;51.222;5.678;2023-06-22T07:53:53;19.50;;;10.50;;
28772;SDS011;15925;51.222;5.678;2023-06-22T07:56:18;20.20;;;10.27;;
28772;SDS011;15925;51.222;5.678;2023-06-22T08:01:11;26.38;;;9.75;;
28772;SDS011;15925;51.222;5.678;2023-06-22T08:03:37;24.30;;;10.70;;
28772;SDS011;15925;51.222;5.678;2023-06-22T08:06:04;28.75;;;11.43;;
28772;SDS011;15925;51.222;5.678;2023-06-22T08:08:31;25.58;;;11.02;;
28772;SDS011;15925;51.222;5.678;2023-06-22T08:10:57;42.72;;;12.02;;
28772;SDS011;15925;51.222;5.678;2023-06-22T08:13:23;18.77;;;9.80;;
28772;SDS011;15925;51.222;5.678;2023-06-22T08:15:48;19.77;;;10.02;;
28772;SDS011;15925;51.222;5.678;2023-06-22T08:18:14;23.45;;;10.52;;
28772;SDS011;15925;51.222;5.678;2023-06-22T08:20:41;20.23;;;9.45;;
28772;SDS011;15925;51.222;5.678;2023-06-22T08:23:07;22.08;;;9.88;;
28772;SDS011;15925;51.222;5.678;2023-06-22T08:25:33;19.20;;;9.88;;
28772;SDS011;15925;51.222;5.678;2023-06-22T08:30:57;15.90;;;8.85;;
28772;SDS011;15925;51.222;5.678;2023-06-22T08:35:58;26.40;;;10.38;;
28772;SDS011;15925;51.222;5.678;2023-06-22T08:40:50;20.85;;;9.38;;
28772;SDS011;15925;51.222;5.678;2023-06-22T08:43:15;16.63;;;9.17;;
28772;SDS011;15925;51.222;5.678;2023-06-22T08:45:41;21.38;;;9.68;;
28772;SDS011;15925;51.222;5.678;2023-06-22T08:48:07;20.35;;;10.98;;
28772;SDS011;15925;51.222;5.678;2023-06-22T08:50:33;18.38;;;8.60;;
28772;SDS011;15925;51.222;5.678;2023-06-22T08:52:59;19.08;;;9.90;;
28772;SDS011;15925;51.222;5.678;2023-06-22T08:55:25;29.45;;;10.05;;
28772;SDS011;15925;51.222;5.678;2023-06-22T08:57:50;19.30;;;9.57;;
28772;SDS011;15925;51.222;5.678;2023-06-22T09:00:16;20.38;;;10.02;;
28772;SDS011;15925;51.222;5.678;2023-06-22T09:02:45;19.77;;;9.27;;
28772;SDS011;15925;51.222;5.678;2023-06-22T09:07:37;21.13;;;8.93;;
28772;SDS011;15925;51.222;5.678;2023-06-22T09:10:04;18.15;;;9.52;;
28772;SDS011;15925;51.222;5.678;2023-06-22T09:12:30;16.02;;;8.57;;
28772;SDS011;15925;51.222;5.678;2023-06-22T09:14:58;20.95;;;8.88;;
28772;SDS011;15925;51.222;5.678;2023-06-22T09:17:28;25.00;;;9.98;;
28772;SDS011;15925;51.222;5.678;2023-06-22T09:19:54;29.92;;;9.00;;
28772;SDS011;15925;51.222;5.678;2023-06-22T09:22:20;20.73;;;9.95;;
28772;SDS011;15925;51.222;5.678;2023-06-22T09:24:46;22.10;;;8.68;;
28772;SDS011;15925;51.222;5.678;2023-06-22T09:27:12;16.85;;;7.80;;
28772;SDS011;15925;51.222;5.678;2023-06-22T09:29:38;22.45;;;7.97;;
28772;SDS011;15925;51.222;5.678;2023-06-22T09:32:04;22.27;;;10.52;;
28772;SDS011;15925;51.222;5.678;2023-06-22T09:34:30;14.65;;;7.88;;
28772;SDS011;15925;51.222;5.678;2023-06-22T09:36:56;17.98;;;8.20;;
28772;SDS011;15925;51.222;5.678;2023-06-22T09:39:22;13.02;;;7.90;;
28772;SDS011;15925;51.222;5.678;2023-06-22T09:41:48;14.80;;;6.80;;
28772;SDS011;15925;51.222;5.678;2023-06-22T09:44:14;21.02;;;7.22;;
28772;SDS011;15925;51.222;5.678;2023-06-22T09:46:40;13.75;;;7.88;;
28772;SDS011;15925;51.222;5.678;2023-06-22T09:49:06;20.85;;;7.80;;
28772;SDS011;15925;51.222;5.678;2023-06-22T09:51:32;14.85;;;8.23;;
28772;SDS011;15925;51.222;5.678;2023-06-22T09:53:57;16.95;;;7.22;;
28772;SDS011;15925;51.222;5.678;2023-06-22T09:56:23;18.35;;;8.55;;
28772;SDS011;15925;51.222;5.678;2023-06-22T09:58:49;24.77;;;8.57;;
28772;SDS011;15925;51.222;5.678;2023-06-22T10:01:18;15.32;;;7.15;;
28772;SDS011;15925;51.222;5.678;2023-06-22T10:03:43;14.88;;;8.18;;
28772;SDS011;15925;51.222;5.678;2023-06-22T10:06:09;16.90;;;8.87;;
28772;SDS011;15925;51.222;5.678;2023-06-22T10:08:35;20.08;;;8.73;;
28772;SDS011;15925;51.222;5.678;2023-06-22T10:11:02;28.50;;;9.68;;
28772;SDS011;15925;51.222;5.678;2023-06-22T10:13:29;21.27;;;9.07;;
28772;SDS011;15925;51.222;5.678;2023-06-22T10:15:54;23.83;;;8.95;;
28772;SDS011;15925;51.222;5.678;2023-06-22T10:18:21;18.45;;;9.10;;
28772;SDS011;15925;51.222;5.678;2023-06-22T10:20:47;20.23;;;9.70;;
28772;SDS011;15925;51.222;5.678;2023-06-22T10:23:16;16.60;;;9.07;;
28772;SDS011;15925;51.222;5.678;2023-06-22T10:25:42;16.08;;;7.38;;
28772;SDS011;15925;51.222;5.678;2023-06-22T10:28:08;17.08;;;9.10;;
28772;SDS011;15925;51.222;5.678;2023-06-22T10:30:34;15.18;;;8.77;;
28772;SDS011;15925;51.222;5.678;2023-06-22T10:33:00;25.48;;;9.07;;
28772;SDS011;15925;51.222;5.678;2023-06-22T10:35:25;14.77;;;8.70;;
28772;SDS011;15925;51.222;5.678;2023-06-22T10:37:52;18.97;;;9.17;;
28772;SDS011;15925;51.222;5.678;2023-06-22T10:40:19;18.48;;;8.27;;
28772;SDS011;15925;51.222;5.678;2023-06-22T10:42:45;18.40;;;8.65;;
28772;SDS011;15925;51.222;5.678;2023-06-22T10:45:11;23.23;;;8.82;;
28772;SDS011;15925;51.222;5.678;2023-06-22T10:47:37;20.10;;;9.95;;
28772;SDS011;15925;51.222;5.678;2023-06-22T10:50:03;21.10;;;9.30;;
28772;SDS011;15925;51.222;5.678;2023-06-22T10:54:55;22.98;;;9.85;;
28772;SDS011;15925;51.222;5.678;2023-06-22T10:57:21;23.63;;;8.80;;
28772;SDS011;15925;51.222;5.678;2023-06-22T10:59:47;20.20;;;8.60;;
28772;SDS011;15925;51.222;5.678;2023-06-22T11:02:13;19.88;;;10.52;;
28772;SDS011;15925;51.222;5.678;2023-06-22T11:04:39;20.08;;;9.10;;
28772;SDS011;15925;51.222;5.678;2023-06-22T11:07:05;23.88;;;10.30;;
28772;SDS011;15925;51.222;5.678;2023-06-22T11:09:31;16.63;;;8.52;;
28772;SDS011;15925;51.222;5.678;2023-06-22T11:11:57;27.33;;;9.93;;
28772;SDS011;15925;51.222;5.678;2023-06-22T11:14:24;17.60;;;9.32;;
28772;SDS011;15925;51.222;5.678;2023-06-22T11:16:50;28.52;;;10.45;;
28772;SDS011;15925;51.222;5.678;2023-06-22T11:19:16;26.10;;;10.95;;
28772;SDS011;15925;51.222;5.678;2023-06-22T11:21:42;32.22;;;10.57;;
28772;SDS011;15925;51.222;5.678;2023-06-22T11:24:08;21.85;;;10.38;;
28772;SDS011;15925;51.222;5.678;2023-06-22T11:26:34;24.17;;;9.70;;
28772;SDS011;15925;51.222;5.678;2023-06-22T11:29:01;27.40;;;11.93;;
28772;SDS011;15925;51.222;5.678;2023-06-22T11:31:30;25.88;;;11.27;;
28772;SDS011;15925;51.222;5.678;2023-06-22T11:33:57;20.08;;;10.88;;
28772;SDS011;15925;51.222;5.678;2023-06-22T11:36:22;27.85;;;11.80;;
28772;SDS011;15925;51.222;5.678;2023-06-22T11:38:48;26.25;;;12.80;;
28772;SDS011;15925;51.222;5.678;2023-06-22T11:41:14;24.02;;;11.70;;
28772;SDS011;15925;51.222;5.678;2023-06-22T11:43:40;34.13;;;12.30;;
28772;SDS011;15925;51.222;5.678;2023-06-22T11:46:06;25.58;;;11.38;;
28772;SDS011;15925;51.222;5.678;2023-06-22T11:48:32;29.45;;;14.13;;
28772;SDS011;15925;51.222;5.678;2023-06-22T11:50:58;29.10;;;12.33;;
28772;SDS011;15925;51.222;5.678;2023-06-22T11:53:24;35.38;;;13.35;;
28772;SDS011;15925;51.222;5.678;2023-06-22T11:55:50;27.00;;;13.23;;
28772;SDS011;15925;51.222;5.678;2023-06-22T11:58:17;27.17;;;14.30;;
28772;SDS011;15925;51.222;5.678;2023-06-22T12:00:43;35.22;;;14.70;;
28772;SDS011;15925;51.222;5.678;2023-06-22T12:03:10;27.52;;;12.20;;
28772;SDS011;15925;51.222;5.678;2023-06-22T12:05:37;23.58;;;12.38;;
28772;SDS011;15925;51.222;5.678;2023-06-22T12:10:29;32.30;;;13.27;;
28772;SDS011;15925;51.222;5.678;2023-06-22T12:12:55;24.27;;;12.63;;
28772;SDS011;15925;51.222;5.678;2023-06-22T12:15:22;25.58;;;12.63;;
28772;SDS011;15925;51.222;5.678;2023-06-22T12:17:49;21.38;;;11.35;;
28772;SDS011;15925;51.222;5.678;2023-06-22T12:20:14;23.90;;;12.15;;
28772;SDS011;15925;51.222;5.678;2023-06-22T12:22:41;26.63;;;12.75;;
28772;SDS011;15925;51.222;5.678;2023-06-22T12:25:07;28.55;;;11.38;;
28772;SDS011;15925;51.222;5.678;2023-06-22T12:29:59;17.08;;;9.07;;
28772;SDS011;15925;51.222;5.678;2023-06-22T12:32:25;16.92;;;9.95;;
28772;SDS011;15925;51.222;5.678;2023-06-22T12:34:51;20.55;;;9.77;;
28772;SDS011;15925;51.222;5.678;2023-06-22T12:37:17;19.90;;;9.52;;
28772;SDS011;15925;51.222;5.678;2023-06-22T12:39:43;16.48;;;9.40;;
28772;SDS011;15925;51.222;5.678;2023-06-22T12:44:40;16.35;;;8.23;;
28772;SDS011;15925;51.222;5.678;2023-06-22T12:47:06;19.98;;;8.05;;
28772;SDS011;15925;51.222;5.678;2023-06-22T12:49:34;17.05;;;8.05;;
28772;SDS011;15925;51.222;5.678;2023-06-22T12:52:00;14.45;;;8.35;;
28772;SDS011;15925;51.222;5.678;2023-06-22T12:54:26;15.23;;;7.18;;
28772;SDS011;15925;51.222;5.678;2023-06-22T12:56:53;13.38;;;7.13;;
28772;SDS011;15925;51.222;5.678;2023-06-22T12:59:19;10.85;;;6.80;;
28772;SDS011;15925;51.222;5.678;2023-06-22T13:01:45;19.40;;;8.63;;
28772;SDS011;15925;51.222;5.678;2023-06-22T13:04:13;22.67;;;8.55;;
28772;SDS011;15925;51.222;5.678;2023-06-22T13:06:43;15.13;;;7.30;;
28772;SDS011;15925;51.222;5.678;2023-06-22T13:09:12;14.15;;;8.48;;
28772;SDS011;15925;51.222;5.678;2023-06-22T13:11:39;16.77;;;8.25;;
28772;SDS011;15925;51.222;5.678;2023-06-22T13:14:04;15.13;;;8.80;;
28772;SDS011;15925;51.222;5.678;2023-06-22T13:16:30;15.60;;;8.50;;
28772;SDS011;15925;51.222;5.678;2023-06-22T13:18:56;25.33;;;9.27;;
28772;SDS011;15925;51.222;5.678;2023-06-22T13:21:22;19.50;;;9.15;;
28772;SDS011;15925;51.222;5.678;2023-06-22T13:23:48;19.08;;;8.55;;
28772;SDS011;15925;51.222;5.678;2023-06-22T13:26:13;18.90;;;8.40;;
28772;SDS011;15925;51.222;5.678;2023-06-22T13:28:39;15.80;;;8.45;;
28772;SDS011;15925;51.222;5.678;2023-06-22T13:31:05;24.10;;;8.23;;
28772;SDS011;15925;51.222;5.678;2023-06-22T13:33:31;20.87;;;9.40;;
28772;SDS011;15925;51.222;5.678;2023-06-22T13:35:56;14.90;;;7.87;;
28772;SDS011;15925;51.222;5.678;2023-06-22T13:38:22;20.90;;;9.68;;
28772;SDS011;15925;51.222;5.678;2023-06-22T13:40:49;16.50;;;9.52;;
28772;SDS011;15925;51.222;5.678;2023-06-22T13:43:15;19.38;;;9.02;;
28772;SDS011;15925;51.222;5.678;2023-06-22T13:45:41;17.73;;;10.05;;
28772;SDS011;15925;51.222;5.678;2023-06-22T13:48:07;26.67;;;9.63;;
28772;SDS011;15925;51.222;5.678;2023-06-22T13:50:33;22.80;;;9.88;;
28772;SDS011;15925;51.222;5.678;2023-06-22T13:52:59;21.80;;;9.50;;
28772;SDS011;15925;51.222;5.678;2023-06-22T13:55:25;19.48;;;9.30;;
28772;SDS011;15925;51.222;5.678;2023-06-22T14:00:17;23.25;;;9.32;;
28772;SDS011;15925;51.222;5.678;2023-06-22T14:02:44;17.35;;;9.50;;
28772;SDS011;15925;51.222;5.678;2023-06-22T14:05:10;21.83;;;10.65;;
28772;SDS011;15925;51.222;5.678;2023-06-22T14:07:36;25.25;;;10.63;;
28772;SDS011;15925;51.222;5.678;2023-06-22T14:10:05;24.42;;;10.15;;
28772;SDS011;15925;51.222;5.678;2023-06-22T14:12:31;26.20;;;10.48;;
28772;SDS011;15925;51.222;5.678;2023-06-22T14:14:57;20.17;;;10.25;;
28772;SDS011;15925;51.222;5.678;2023-06-22T14:17:23;21.58;;;10.85;;
28772;SDS011;15925;51.222;5.678;2023-06-22T14:19:51;25.05;;;11.63;;
28772;SDS011;15925;51.222;5.678;2023-06-22T14:22:20;19.58;;;10.75;;
28772;SDS011;15925;51.222;5.678;2023-06-22T14:24:47;21.83;;;11.00;;
28772;SDS011;15925;51.222;5.678;2023-06-22T14:27:13;26.67;;;12.02;;
28772;SDS011;15925;51.222;5.678;2023-06-22T14:29:39;21.52;;;12.50;;
28772;SDS011;15925;51.222;5.678;2023-06-22T14:32:05;20.45;;;11.27;;
28772;SDS011;15925;51.222;5.678;2023-06-22T14:36:57;20.35;;;10.85;;
28772;SDS011;15925;51.222;5.678;2023-06-22T14:39:23;24.48;;;11.95;;
28772;SDS011;15925;51.222;5.678;2023-06-22T14:41:49;22.05;;;10.98;;
28772;SDS011;15925;51.222;5.678;2023-06-22T14:44:15;19.65;;;11.25;;
28772;SDS011;15925;51.222;5.678;2023-06-22T14:46:41;27.08;;;11.35;;
28772;SDS011;15925;51.222;5.678;2023-06-22T14:49:06;21.00;;;11.18;;
28772;SDS011;15925;51.222;5.678;2023-06-22T14:51:32;20.67;;;11.30;;
28772;SDS011;15925;51.222;5.678;2023-06-22T14:53:58;22.83;;;11.87;;
28772;SDS011;15925;51.222;5.678;2023-06-22T14:56:24;24.57;;;11.70;;
28772;SDS011;15925;51.222;5.678;2023-06-22T14:58:50;23.65;;;12.18;;
28772;SDS011;15925;51.222;5.678;2023-06-22T15:01:16;20.13;;;11.25;;
28772;SDS011;15925;51.222;5.678;2023-06-22T15:03:42;20.65;;;11.77;;
28772;SDS011;15925;51.222;5.678;2023-06-22T15:06:08;22.38;;;10.90;;
28772;SDS011;15925;51.222;5.678;2023-06-22T15:08:36;24.58;;;11.68;;
28772;SDS011;15925;51.222;5.678;2023-06-22T15:11:03;20.73;;;11.40;;
28772;SDS011;15925;51.222;5.678;2023-06-22T15:13:32;20.80;;;11.70;;
28772;SDS011;15925;51.222;5.678;2023-06-22T15:16:01;19.65;;;10.70;;
28772;SDS011;15925;51.222;5.678;2023-06-22T15:18:28;22.92;;;11.18;;
28772;SDS011;15925;51.222;5.678;2023-06-22T15:20:54;25.33;;;11.75;;
28772;SDS011;15925;51.222;5.678;2023-06-22T15:23:20;22.65;;;9.35;;
28772;SDS011;15925;51.222;5.678;2023-06-22T15:25:46;19.92;;;10.48;;
28772;SDS011;15925;51.222;5.678;2023-06-22T15:28:12;20.65;;;10.35;;
28772;SDS011;15925;51.222;5.678;2023-06-22T15:30:39;22.05;;;10.25;;
28772;SDS011;15925;51.222;5.678;2023-06-22T15:33:05;24.83;;;10.40;;